sensor_id;sensor_type;location;lat;lon;timestamp;P1;durP1;ratioP1;P2;durP2;ratioP2
16075;SDS011;8142;48.242;11.644;2023-07-13T00:02:16;4.20;;;2.63;;
16075;SDS011;8142;48.242;11.644;2023-07-13T00:04:42;3.07;;;2.77;;
16075;SDS011;8142;48.242;11.644;2023-07-13T00:07:08;3.30;;;2.70;;
16075;SDS011;8142;48.242;11.644;2023-07-13T00:09:34;3.80;;;2.87;;
16075;SDS011;8142;48.242;11.644;2023-07-13T00:12:00;5.33;;;2.90;;
16075;SDS011;8142;48.242;11.644;2023-07-13T00:14:28;2.90;;;2.60;;
16075;SDS011;8142;48.242;11.644;2023-07-13T00:16:55;6.63;;;3.10;;
16075;SDS011;8142;48.242;11.644;2023-07-13T00:19:21;4.83;;;3.27;;
16075;SDS011;8142;48.242;11.644;2023-07-13T00:21:47;4.20;;;2.93;;
16075;SDS011;8142;48.242;11.644;2023-07-13T00:24:15;3.80;;;3.03;;
16075;SDS011;8142;48.242;11.644;2023-07-13T00:26:47;3.73;;;2.73;;
16075;SDS011;8142;48.242;11.644;2023-07-13T00:29:13;4.33;;;2.80;;
16075;SDS011;8142;48.242;11.644;2023-07-13T00:31:39;3.17;;;2.87;;
16075;SDS011;8142;48.242;11.644;2023-07-13T00:34:05;4.27;;;3.00;;
16075;SDS011;8142;48.242;11.644;2023-07-13T00:36:31;4.17;;;2.60;;
16075;SDS011;8142;48.242;11.644;2023-07-13T00:38:57;3.20;;;2.70;;
16075;SDS011;8142;48.242;11.644;2023-07-13T00:41:23;3.83;;;2.67;;
16075;SDS011;8142;48.242;11.644;2023-07-13T00:43:49;3.37;;;2.80;;
16075;SDS011;8142;48.242;11.644;2023-07-13T00:46:19;4.57;;;2.87;;
16075;SDS011;8142;48.242;11.644;2023-07-13T00:48:48;5.80;;;2.93;;
16075;SDS011;8142;48.242;11.644;2023-07-13T00:51:20;3.47;;;2.60;;
16075;SDS011;8142;48.242;11.644;2023-07-13T00:53:50;7.37;;;3.17;;
16075;SDS011;8142;48.242;11.644;2023-07-13T00:56:19;2.70;;;2.50;;
16075;SDS011;8142;48.242;11.644;2023-07-13T00:58:45;3.93;;;2.90;;
16075;SDS011;8142;48.242;11.644;2023-07-13T01:01:11;3.40;;;3.00;;
16075;SDS011;8142;48.242;11.644;2023-07-13T01:03:38;4.17;;;3.00;;
16075;SDS011;8142;48.242;11.644;2023-07-13T01:06:05;3.30;;;2.63;;
16075;SDS011;8142;48.242;11.644;2023-07-13T01:08:31;3.60;;;2.63;;
16075;SDS011;8142;48.242;11.644;2023-07-13T01:10:58;6.60;;;2.83;;
16075;SDS011;8142;48.242;11.644;2023-07-13T01:13:24;4.93;;;2.70;;
16075;SDS011;8142;48.242;11.644;2023-07-13T01:15:50;4.80;;;2.80;;
16075;SDS011;8142;48.242;11.644;2023-07-13T01:18:21;4.83;;;2.80;;
16075;SDS011;8142;48.242;11.644;2023-07-13T01:20:54;4.07;;;2.80;;
16075;SDS011;8142;48.242;11.644;2023-07-13T01:23:22;4.90;;;2.87;;
16075;SDS011;8142;48.242;11.644;2023-07-13T01:25:49;5.57;;;2.77;;
16075;SDS011;8142;48.242;11.644;2023-07-13T01:28:15;4.00;;;2.80;;
16075;SDS011;8142;48.242;11.644;2023-07-13T01:30:42;3.93;;;2.87;;
16075;SDS011;8142;48.242;11.644;2023-07-13T01:33:11;7.57;;;3.70;;
16075;SDS011;8142;48.242;11.644;2023-07-13T01:35:38;6.13;;;3.20;;
16075;SDS011;8142;48.242;11.644;2023-07-13T01:38:04;4.77;;;2.90;;
16075;SDS011;8142;48.242;11.644;2023-07-13T01:40:31;6.47;;;2.70;;
16075;SDS011;8142;48.242;11.644;2023-07-13T01:42:58;6.40;;;3.07;;
16075;SDS011;8142;48.242;11.644;2023-07-13T01:45:24;3.17;;;2.80;;
16075;SDS011;8142;48.242;11.644;2023-07-13T01:47:49;5.50;;;2.80;;
16075;SDS011;8142;48.242;11.644;2023-07-13T01:50:15;5.10;;;2.90;;
16075;SDS011;8142;48.242;11.644;2023-07-13T01:52:41;6.50;;;3.17;;
16075;SDS011;8142;48.242;11.644;2023-07-13T01:55:07;6.20;;;2.93;;
16075;SDS011;8142;48.242;11.644;2023-07-13T01:57:34;6.83;;;3.13;;
16075;SDS011;8142;48.242;11.644;2023-07-13T02:00:02;7.70;;;2.80;;
16075;SDS011;8142;48.242;11.644;2023-07-13T02:02:30;7.10;;;2.97;;
16075;SDS011;8142;48.242;11.644;2023-07-13T02:04:56;4.37;;;2.70;;
16075;SDS011;8142;48.242;11.644;2023-07-13T02:07:22;4.10;;;2.90;;
16075;SDS011;8142;48.242;11.644;2023-07-13T02:09:48;6.57;;;3.90;;
16075;SDS011;8142;48.242;11.644;2023-07-13T02:12:14;9.30;;;4.03;;
16075;SDS011;8142;48.242;11.644;2023-07-13T02:14:39;6.60;;;3.50;;
16075;SDS011;8142;48.242;11.644;2023-07-13T02:17:05;5.77;;;3.43;;
16075;SDS011;8142;48.242;11.644;2023-07-13T02:19:32;5.23;;;3.20;;
16075;SDS011;8142;48.242;11.644;2023-07-13T02:21:57;3.03;;;2.80;;
16075;SDS011;8142;48.242;11.644;2023-07-13T02:24:23;3.70;;;3.00;;
16075;SDS011;8142;48.242;11.644;2023-07-13T02:26:49;3.50;;;2.80;;
16075;SDS011;8142;48.242;11.644;2023-07-13T02:29:15;3.80;;;3.20;;
16075;SDS011;8142;48.242;11.644;2023-07-13T02:31:41;4.07;;;3.10;;
16075;SDS011;8142;48.242;11.644;2023-07-13T02:34:07;6.20;;;3.60;;
16075;SDS011;8142;48.242;11.644;2023-07-13T02:36:33;4.60;;;3.27;;
16075;SDS011;8142;48.242;11.644;2023-07-13T02:39:00;4.83;;;3.57;;
16075;SDS011;8142;48.242;11.644;2023-07-13T02:41:28;5.77;;;3.43;;
16075;SDS011;8142;48.242;11.644;2023-07-13T02:43:54;5.27;;;3.60;;
16075;SDS011;8142;48.242;11.644;2023-07-13T02:46:28;6.77;;;3.83;;
16075;SDS011;8142;48.242;11.644;2023-07-13T02:48:58;5.43;;;3.90;;
16075;SDS011;8142;48.242;11.644;2023-07-13T02:51:24;7.33;;;4.27;;
16075;SDS011;8142;48.242;11.644;2023-07-13T02:53:50;5.33;;;4.10;;
16075;SDS011;8142;48.242;11.644;2023-07-13T02:56:15;5.83;;;4.00;;
16075;SDS011;8142;48.242;11.644;2023-07-13T02:58:42;6.63;;;4.53;;
16075;SDS011;8142;48.242;11.644;2023-07-13T03:01:08;6.90;;;4.37;;
16075;SDS011;8142;48.242;11.644;2023-07-13T03:03:35;6.13;;;4.13;;
16075;SDS011;8142;48.242;11.644;2023-07-13T03:06:02;8.57;;;4.30;;
16075;SDS011;8142;48.242;11.644;2023-07-13T03:08:31;7.00;;;4.57;;
16075;SDS011;8142;48.242;11.644;2023-07-13T03:11:04;5.07;;;4.40;;
16075;SDS011;8142;48.242;11.644;2023-07-13T03:13:32;6.67;;;4.50;;
16075;SDS011;8142;48.242;11.644;2023-07-13T03:15:59;7.73;;;4.67;;
16075;SDS011;8142;48.242;11.644;2023-07-13T03:18:26;8.27;;;4.10;;
16075;SDS011;8142;48.242;11.644;2023-07-13T03:20:52;6.30;;;4.33;;
16075;SDS011;8142;48.242;11.644;2023-07-13T03:23:19;6.10;;;4.80;;
16075;SDS011;8142;48.242;11.644;2023-07-13T03:25:45;6.17;;;4.37;;
16075;SDS011;8142;48.242;11.644;2023-07-13T03:28:12;6.70;;;4.77;;
16075;SDS011;8142;48.242;11.644;2023-07-13T03:30:38;7.37;;;4.67;;
16075;SDS011;8142;48.242;11.644;2023-07-13T03:33:04;7.20;;;4.60;;
16075;SDS011;8142;48.242;11.644;2023-07-13T03:35:30;6.53;;;4.40;;
16075;SDS011;8142;48.242;11.644;2023-07-13T03:37:58;5.70;;;4.90;;
16075;SDS011;8142;48.242;11.644;2023-07-13T03:40:25;6.03;;;4.60;;
16075;SDS011;8142;48.242;11.644;2023-07-13T03:42:51;6.93;;;4.73;;
16075;SDS011;8142;48.242;11.644;2023-07-13T03:45:18;6.40;;;4.57;;
16075;SDS011;8142;48.242;11.644;2023-07-13T03:47:44;5.93;;;4.40;;
16075;SDS011;8142;48.242;11.644;2023-07-13T03:50:10;6.80;;;5.20;;
16075;SDS011;8142;48.242;11.644;2023-07-13T03:52:36;6.23;;;4.60;;
16075;SDS011;8142;48.242;11.644;2023-07-13T03:55:02;6.63;;;4.70;;
16075;SDS011;8142;48.242;11.644;2023-07-13T03:57:28;7.70;;;4.23;;
16075;SDS011;8142;48.242;11.644;2023-07-13T03:59:55;5.30;;;4.23;;
16075;SDS011;8142;48.242;11.644;2023-07-13T04:02:20;6.47;;;4.03;;
16075;SDS011;8142;48.242;11.644;2023-07-13T04:04:46;6.13;;;4.40;;
16075;SDS011;8142;48.242;11.644;2023-07-13T04:07:12;9.57;;;4.20;;
16075;SDS011;8142;48.242;11.644;2023-07-13T04:09:38;7.63;;;4.03;;
16075;SDS011;8142;48.242;11.644;2023-07-13T04:12:04;7.90;;;4.23;;
16075;SDS011;8142;48.242;11.644;2023-07-13T04:14:30;5.83;;;4.10;;
16075;SDS011;8142;48.242;11.644;2023-07-13T04:16:56;7.30;;;4.27;;
16075;SDS011;8142;48.242;11.644;2023-07-13T04:19:22;4.47;;;3.90;;
16075;SDS011;8142;48.242;11.644;2023-07-13T04:21:48;5.00;;;4.10;;
16075;SDS011;8142;48.242;11.644;2023-07-13T04:24:14;6.47;;;3.93;;
16075;SDS011;8142;48.242;11.644;2023-07-13T04:26:40;6.07;;;4.00;;
16075;SDS011;8142;48.242;11.644;2023-07-13T04:29:06;4.97;;;3.17;;
16075;SDS011;8142;48.242;11.644;2023-07-13T04:31:32;4.23;;;3.70;;
16075;SDS011;8142;48.242;11.644;2023-07-13T04:33:59;4.80;;;3.70;;
16075;SDS011;8142;48.242;11.644;2023-07-13T04:36:25;4.30;;;3.63;;
16075;SDS011;8142;48.242;11.644;2023-07-13T04:38:54;5.20;;;3.97;;
16075;SDS011;8142;48.242;11.644;2023-07-13T04:41:20;6.27;;;3.70;;
16075;SDS011;8142;48.242;11.644;2023-07-13T04:43:46;6.07;;;3.83;;
16075;SDS011;8142;48.242;11.644;2023-07-13T04:46:13;4.57;;;3.70;;
16075;SDS011;8142;48.242;11.644;2023-07-13T04:48:42;6.40;;;3.87;;
16075;SDS011;8142;48.242;11.644;2023-07-13T04:51:09;3.90;;;3.27;;
16075;SDS011;8142;48.242;11.644;2023-07-13T04:53:35;5.63;;;3.60;;
16075;SDS011;8142;48.242;11.644;2023-07-13T04:56:01;3.97;;;3.30;;
16075;SDS011;8142;48.242;11.644;2023-07-13T04:58:27;5.60;;;3.30;;
16075;SDS011;8142;48.242;11.644;2023-07-13T05:00:58;5.43;;;3.30;;
16075;SDS011;8142;48.242;11.644;2023-07-13T05:03:29;5.33;;;3.03;;
16075;SDS011;8142;48.242;11.644;2023-07-13T05:05:59;4.93;;;3.17;;
16075;SDS011;8142;48.242;11.644;2023-07-13T05:08:26;4.43;;;3.20;;
16075;SDS011;8142;48.242;11.644;2023-07-13T05:10:56;4.93;;;3.03;;
16075;SDS011;8142;48.242;11.644;2023-07-13T05:13:21;3.50;;;2.90;;
16075;SDS011;8142;48.242;11.644;2023-07-13T05:15:58;4.40;;;3.10;;
16075;SDS011;8142;48.242;11.644;2023-07-13T05:18:29;5.23;;;3.07;;
16075;SDS011;8142;48.242;11.644;2023-07-13T05:21:00;4.53;;;3.10;;
16075;SDS011;8142;48.242;11.644;2023-07-13T05:23:30;4.70;;;3.20;;
16075;SDS011;8142;48.242;11.644;2023-07-13T05:25:57;5.83;;;3.20;;
16075;SDS011;8142;48.242;11.644;2023-07-13T05:28:23;8.13;;;3.20;;
16075;SDS011;8142;48.242;11.644;2023-07-13T05:30:49;4.07;;;3.07;;
16075;SDS011;8142;48.242;11.644;2023-07-13T05:33:16;3.50;;;3.07;;
16075;SDS011;8142;48.242;11.644;2023-07-13T05:35:41;4.10;;;2.97;;
16075;SDS011;8142;48.242;11.644;2023-07-13T05:38:08;3.87;;;3.27;;
16075;SDS011;8142;48.242;11.644;2023-07-13T05:40:34;5.27;;;3.27;;
16075;SDS011;8142;48.242;11.644;2023-07-13T05:43:00;3.53;;;3.20;;
16075;SDS011;8142;48.242;11.644;2023-07-13T05:45:26;6.37;;;2.87;;
16075;SDS011;8142;48.242;11.644;2023-07-13T05:47:52;5.33;;;3.20;;
16075;SDS011;8142;48.242;11.644;2023-07-13T05:50:18;6.80;;;3.27;;
16075;SDS011;8142;48.242;11.644;2023-07-13T05:52:43;4.33;;;2.83;;
16075;SDS011;8142;48.242;11.644;2023-07-13T05:55:09;4.50;;;3.07;;
16075;SDS011;8142;48.242;11.644;2023-07-13T05:57:35;6.97;;;3.17;;
16075;SDS011;8142;48.242;11.644;2023-07-13T06:00:01;4.47;;;2.90;;
16075;SDS011;8142;48.242;11.644;2023-07-13T06:02:27;3.63;;;2.63;;
16075;SDS011;8142;48.242;11.644;2023-07-13T06:04:53;5.70;;;3.23;;
16075;SDS011;8142;48.242;11.644;2023-07-13T06:07:19;4.97;;;3.10;;
16075;SDS011;8142;48.242;11.644;2023-07-13T06:09:45;4.90;;;2.97;;
16075;SDS011;8142;48.242;11.644;2023-07-13T06:12:11;3.53;;;2.80;;
16075;SDS011;8142;48.242;11.644;2023-07-13T06:14:37;5.47;;;2.87;;
16075;SDS011;8142;48.242;11.644;2023-07-13T06:17:02;5.30;;;2.90;;
16075;SDS011;8142;48.242;11.644;2023-07-13T06:19:28;5.03;;;2.97;;
16075;SDS011;8142;48.242;11.644;2023-07-13T06:21:54;4.57;;;2.50;;
16075;SDS011;8142;48.242;11.644;2023-07-13T06:24:20;3.60;;;2.67;;
16075;SDS011;8142;48.242;11.644;2023-07-13T06:26:46;3.90;;;2.67;;
16075;SDS011;8142;48.242;11.644;2023-07-13T06:29:12;4.13;;;2.40;;
16075;SDS011;8142;48.242;11.644;2023-07-13T06:31:38;3.97;;;2.67;;
16075;SDS011;8142;48.242;11.644;2023-07-13T06:34:04;3.77;;;2.60;;
16075;SDS011;8142;48.242;11.644;2023-07-13T06:36:30;2.83;;;2.23;;
16075;SDS011;8142;48.242;11.644;2023-07-13T06:38:56;4.03;;;2.57;;
16075;SDS011;8142;48.242;11.644;2023-07-13T06:41:22;3.30;;;2.10;;
16075;SDS011;8142;48.242;11.644;2023-07-13T06:43:49;2.83;;;2.10;;
16075;SDS011;8142;48.242;11.644;2023-07-13T06:46:15;3.93;;;2.30;;
16075;SDS011;8142;48.242;11.644;2023-07-13T06:48:42;3.30;;;2.20;;
16075;SDS011;8142;48.242;11.644;2023-07-13T06:51:08;3.57;;;2.43;;
16075;SDS011;8142;48.242;11.644;2023-07-13T06:53:34;5.03;;;2.27;;
16075;SDS011;8142;48.242;11.644;2023-07-13T06:56:00;4.27;;;2.40;;
16075;SDS011;8142;48.242;11.644;2023-07-13T06:58:25;3.00;;;2.20;;
16075;SDS011;8142;48.242;11.644;2023-07-13T07:00:52;3.63;;;2.30;;
16075;SDS011;8142;48.242;11.644;2023-07-13T07:03:18;3.30;;;2.20;;
16075;SDS011;8142;48.242;11.644;2023-07-13T07:05:44;4.90;;;2.50;;
16075;SDS011;8142;48.242;11.644;2023-07-13T07:08:09;2.33;;;2.07;;
16075;SDS011;8142;48.242;11.644;2023-07-13T07:10:35;2.50;;;1.87;;
16075;SDS011;8142;48.242;11.644;2023-07-13T07:13:02;3.93;;;2.30;;
16075;SDS011;8142;48.242;11.644;2023-07-13T07:15:28;4.30;;;2.33;;
16075;SDS011;8142;48.242;11.644;2023-07-13T07:17:54;3.93;;;2.23;;
16075;SDS011;8142;48.242;11.644;2023-07-13T07:20:20;4.70;;;2.33;;
16075;SDS011;8142;48.242;11.644;2023-07-13T07:22:47;3.87;;;2.30;;
16075;SDS011;8142;48.242;11.644;2023-07-13T07:25:13;4.80;;;2.27;;
16075;SDS011;8142;48.242;11.644;2023-07-13T07:27:40;3.23;;;2.00;;
16075;SDS011;8142;48.242;11.644;2023-07-13T07:30:05;3.97;;;2.20;;
16075;SDS011;8142;48.242;11.644;2023-07-13T07:32:32;3.10;;;2.10;;
16075;SDS011;8142;48.242;11.644;2023-07-13T07:34:58;3.80;;;2.07;;
16075;SDS011;8142;48.242;11.644;2023-07-13T07:37:24;3.57;;;2.40;;
16075;SDS011;8142;48.242;11.644;2023-07-13T07:39:50;5.33;;;2.33;;
16075;SDS011;8142;48.242;11.644;2023-07-13T07:42:16;4.90;;;2.20;;
16075;SDS011;8142;48.242;11.644;2023-07-13T07:44:42;6.27;;;2.40;;
16075;SDS011;8142;48.242;11.644;2023-07-13T07:47:08;4.47;;;2.23;;
16075;SDS011;8142;48.242;11.644;2023-07-13T07:49:35;4.17;;;2.43;;
16075;SDS011;8142;48.242;11.644;2023-07-13T07:52:01;4.00;;;2.30;;
16075;SDS011;8142;48.242;11.644;2023-07-13T07:54:27;5.10;;;2.33;;
16075;SDS011;8142;48.242;11.644;2023-07-13T07:56:53;3.33;;;2.30;;
16075;SDS011;8142;48.242;11.644;2023-07-13T07:59:20;10.10;;;2.87;;
16075;SDS011;8142;48.242;11.644;2023-07-13T08:01:46;2.90;;;2.20;;
16075;SDS011;8142;48.242;11.644;2023-07-13T08:04:13;4.70;;;2.40;;
16075;SDS011;8142;48.242;11.644;2023-07-13T08:06:39;4.40;;;2.40;;
16075;SDS011;8142;48.242;11.644;2023-07-13T08:09:05;3.80;;;2.13;;
16075;SDS011;8142;48.242;11.644;2023-07-13T08:11:31;3.47;;;1.97;;
16075;SDS011;8142;48.242;11.644;2023-07-13T08:13:57;5.83;;;2.10;;
16075;SDS011;8142;48.242;11.644;2023-07-13T08:16:23;4.50;;;2.13;;
16075;SDS011;8142;48.242;11.644;2023-07-13T08:18:49;4.23;;;2.00;;
16075;SDS011;8142;48.242;11.644;2023-07-13T08:21:16;6.63;;;2.10;;
16075;SDS011;8142;48.242;11.644;2023-07-13T08:23:42;5.80;;;2.23;;
16075;SDS011;8142;48.242;11.644;2023-07-13T08:26:09;3.97;;;2.00;;
16075;SDS011;8142;48.242;11.644;2023-07-13T08:28:34;7.10;;;2.50;;
16075;SDS011;8142;48.242;11.644;2023-07-13T08:31:01;4.37;;;2.20;;
16075;SDS011;8142;48.242;11.644;2023-07-13T08:33:33;3.93;;;1.97;;
16075;SDS011;8142;48.242;11.644;2023-07-13T08:36:00;4.40;;;2.23;;
16075;SDS011;8142;48.242;11.644;2023-07-13T08:38:27;4.57;;;2.10;;
16075;SDS011;8142;48.242;11.644;2023-07-13T08:40:53;3.37;;;2.10;;
16075;SDS011;8142;48.242;11.644;2023-07-13T08:43:30;9.10;;;2.23;;
16075;SDS011;8142;48.242;11.644;2023-07-13T08:46:15;5.23;;;2.47;;
16075;SDS011;8142;48.242;11.644;2023-07-13T08:48:47;6.60;;;1.90;;
16075;SDS011;8142;48.242;11.644;2023-07-13T08:54:14;3.87;;;2.10;;
16075;SDS011;8142;48.242;11.644;2023-07-13T08:56:43;3.77;;;2.13;;
16075;SDS011;8142;48.242;11.644;2023-07-13T08:59:15;3.20;;;2.10;;
16075;SDS011;8142;48.242;11.644;2023-07-13T09:04:56;5.23;;;2.00;;
16075;SDS011;8142;48.242;11.644;2023-07-13T09:07:29;4.27;;;2.10;;
16075;SDS011;8142;48.242;11.644;2023-07-13T09:10:09;2.10;;;1.90;;
16075;SDS011;8142;48.242;11.644;2023-07-13T09:13:11;2.47;;;1.80;;
16075;SDS011;8142;48.242;11.644;2023-07-13T09:15:49;4.73;;;1.90;;
16075;SDS011;8142;48.242;11.644;2023-07-13T09:21:10;2.43;;;1.87;;
16075;SDS011;8142;48.242;11.644;2023-07-13T09:23:40;3.27;;;1.90;;
16075;SDS011;8142;48.242;11.644;2023-07-13T09:26:10;4.53;;;1.77;;
16075;SDS011;8142;48.242;11.644;2023-07-13T09:28:45;4.70;;;1.87;;
16075;SDS011;8142;48.242;11.644;2023-07-13T09:31:19;3.17;;;1.80;;
16075;SDS011;8142;48.242;11.644;2023-07-13T09:33:47;3.20;;;1.97;;
16075;SDS011;8142;48.242;11.644;2023-07-13T09:38:42;3.10;;;1.80;;
16075;SDS011;8142;48.242;11.644;2023-07-13T09:41:18;2.77;;;1.80;;
16075;SDS011;8142;48.242;11.644;2023-07-13T09:44:07;3.93;;;1.80;;
16075;SDS011;8142;48.242;11.644;2023-07-13T09:46:36;5.20;;;1.80;;
16075;SDS011;8142;48.242;11.644;2023-07-13T09:49:03;3.27;;;1.70;;
16075;SDS011;8142;48.242;11.644;2023-07-13T09:51:29;1.63;;;1.53;;
16075;SDS011;8142;48.242;11.644;2023-07-13T09:53:55;3.60;;;1.90;;
16075;SDS011;8142;48.242;11.644;2023-07-13T09:56:23;4.87;;;1.90;;
16075;SDS011;8142;48.242;11.644;2023-07-13T09:58:54;3.93;;;2.00;;
16075;SDS011;8142;48.242;11.644;2023-07-13T10:01:36;2.63;;;1.70;;
16075;SDS011;8142;48.242;11.644;2023-07-13T10:04:10;3.83;;;1.60;;
16075;SDS011;8142;48.242;11.644;2023-07-13T10:06:39;4.60;;;1.70;;
16075;SDS011;8142;48.242;11.644;2023-07-13T10:09:08;1.63;;;1.40;;
16075;SDS011;8142;48.242;11.644;2023-07-13T10:11:35;4.63;;;1.80;;
16075;SDS011;8142;48.242;11.644;2023-07-13T10:14:03;4.00;;;1.80;;
16075;SDS011;8142;48.242;11.644;2023-07-13T10:16:40;4.07;;;1.70;;
16075;SDS011;8142;48.242;11.644;2023-07-13T10:19:11;3.93;;;1.80;;
16075;SDS011;8142;48.242;11.644;2023-07-13T10:21:39;4.43;;;1.60;;
16075;SDS011;8142;48.242;11.644;2023-07-13T10:24:33;5.93;;;1.90;;
16075;SDS011;8142;48.242;11.644;2023-07-13T10:29:55;3.43;;;1.70;;
16075;SDS011;8142;48.242;11.644;2023-07-13T10:32:34;1.67;;;1.47;;
16075;SDS011;8142;48.242;11.644;2023-07-13T10:34:59;3.17;;;1.67;;
16075;SDS011;8142;48.242;11.644;2023-07-13T10:37:40;3.97;;;1.60;;
16075;SDS011;8142;48.242;11.644;2023-07-13T10:40:31;4.30;;;1.77;;
16075;SDS011;8142;48.242;11.644;2023-07-13T10:43:02;5.10;;;1.73;;
16075;SDS011;8142;48.242;11.644;2023-07-13T10:45:34;2.57;;;1.60;;
16075;SDS011;8142;48.242;11.644;2023-07-13T10:48:02;3.27;;;2.00;;
16075;SDS011;8142;48.242;11.644;2023-07-13T10:50:29;3.37;;;1.60;;
16075;SDS011;8142;48.242;11.644;2023-07-13T10:53:03;6.03;;;2.13;;
16075;SDS011;8142;48.242;11.644;2023-07-13T10:58:34;5.30;;;2.03;;
16075;SDS011;8142;48.242;11.644;2023-07-13T11:11:31;3.67;;;1.67;;
16075;SDS011;8142;48.242;11.644;2023-07-13T11:14:00;4.47;;;1.80;;
16075;SDS011;8142;48.242;11.644;2023-07-13T11:16:37;3.80;;;1.80;;
16075;SDS011;8142;48.242;11.644;2023-07-13T11:22:01;3.50;;;1.77;;
16075;SDS011;8142;48.242;11.644;2023-07-13T11:25:20;3.43;;;1.80;;
16075;SDS011;8142;48.242;11.644;2023-07-13T11:29:52;3.53;;;1.90;;
16075;SDS011;8142;48.242;11.644;2023-07-13T11:32:45;2.87;;;1.70;;
16075;SDS011;8142;48.242;11.644;2023-07-13T11:35:31;2.90;;;1.73;;
16075;SDS011;8142;48.242;11.644;2023-07-13T11:38:02;5.23;;;1.80;;
16075;SDS011;8142;48.242;11.644;2023-07-13T11:40:34;3.37;;;1.90;;
16075;SDS011;8142;48.242;11.644;2023-07-13T11:43:00;6.30;;;2.17;;
16075;SDS011;8142;48.242;11.644;2023-07-13T11:45:26;3.13;;;1.80;;
16075;SDS011;8142;48.242;11.644;2023-07-13T11:47:53;3.27;;;1.80;;
16075;SDS011;8142;48.242;11.644;2023-07-13T11:50:23;3.33;;;1.67;;
16075;SDS011;8142;48.242;11.644;2023-07-13T11:52:50;3.83;;;1.53;;
16075;SDS011;8142;48.242;11.644;2023-07-13T11:55:20;1.70;;;1.60;;
16075;SDS011;8142;48.242;11.644;2023-07-13T11:57:57;2.67;;;1.80;;
16075;SDS011;8142;48.242;11.644;2023-07-13T12:00:31;2.60;;;1.70;;
16075;SDS011;8142;48.242;11.644;2023-07-13T12:02:59;3.23;;;1.70;;
16075;SDS011;8142;48.242;11.644;2023-07-13T12:05:27;3.13;;;1.83;;
16075;SDS011;8142;48.242;11.644;2023-07-13T12:07:55;5.07;;;2.20;;
16075;SDS011;8142;48.242;11.644;2023-07-13T12:10:28;2.60;;;1.80;;
16075;SDS011;8142;48.242;11.644;2023-07-13T12:12:56;2.60;;;2.00;;
16075;SDS011;8142;48.242;11.644;2023-07-13T12:15:26;3.33;;;2.00;;
16075;SDS011;8142;48.242;11.644;2023-07-13T12:18:23;4.13;;;1.93;;
16075;SDS011;8142;48.242;11.644;2023-07-13T12:20:55;5.03;;;1.77;;
16075;SDS011;8142;48.242;11.644;2023-07-13T12:23:25;4.40;;;1.87;;
16075;SDS011;8142;48.242;11.644;2023-07-13T12:25:58;1.80;;;1.50;;
16075;SDS011;8142;48.242;11.644;2023-07-13T12:28:34;2.37;;;1.63;;
16075;SDS011;8142;48.242;11.644;2023-07-13T12:31:03;3.23;;;1.70;;
16075;SDS011;8142;48.242;11.644;2023-07-13T12:33:32;3.70;;;1.77;;
16075;SDS011;8142;48.242;11.644;2023-07-13T12:36:00;2.60;;;1.70;;
16075;SDS011;8142;48.242;11.644;2023-07-13T12:38:28;3.37;;;1.57;;
16075;SDS011;8142;48.242;11.644;2023-07-13T12:40:56;2.07;;;1.70;;
16075;SDS011;8142;48.242;11.644;2023-07-13T12:43:23;5.30;;;1.90;;
16075;SDS011;8142;48.242;11.644;2023-07-13T12:46:04;2.90;;;1.50;;
16075;SDS011;8142;48.242;11.644;2023-07-13T12:48:41;4.33;;;1.97;;
16075;SDS011;8142;48.242;11.644;2023-07-13T12:51:12;4.87;;;1.80;;
16075;SDS011;8142;48.242;11.644;2023-07-13T12:53:41;2.53;;;1.50;;
16075;SDS011;8142;48.242;11.644;2023-07-13T12:56:13;3.40;;;1.77;;
16075;SDS011;8142;48.242;11.644;2023-07-13T12:58:47;3.57;;;1.60;;
16075;SDS011;8142;48.242;11.644;2023-07-13T13:01:20;2.63;;;1.40;;
16075;SDS011;8142;48.242;11.644;2023-07-13T13:03:49;3.07;;;1.70;;
16075;SDS011;8142;48.242;11.644;2023-07-13T13:06:28;3.47;;;1.53;;
16075;SDS011;8142;48.242;11.644;2023-07-13T13:08:57;2.23;;;1.50;;
16075;SDS011;8142;48.242;11.644;2023-07-13T13:11:25;4.30;;;1.70;;
16075;SDS011;8142;48.242;11.644;2023-07-13T13:13:52;2.37;;;1.40;;
16075;SDS011;8142;48.242;11.644;2023-07-13T13:18:59;5.50;;;1.70;;
16075;SDS011;8142;48.242;11.644;2023-07-13T13:21:35;2.40;;;1.73;;
16075;SDS011;8142;48.242;11.644;2023-07-13T13:24:01;2.83;;;1.50;;
16075;SDS011;8142;48.242;11.644;2023-07-13T13:26:27;2.07;;;1.77;;
16075;SDS011;8142;48.242;11.644;2023-07-13T13:28:57;1.93;;;1.63;;
16075;SDS011;8142;48.242;11.644;2023-07-13T13:31:23;3.83;;;1.60;;
16075;SDS011;8142;48.242;11.644;2023-07-13T13:33:49;6.27;;;1.80;;
16075;SDS011;8142;48.242;11.644;2023-07-13T13:36:19;3.17;;;1.60;;
16075;SDS011;8142;48.242;11.644;2023-07-13T13:38:50;2.10;;;1.50;;
16075;SDS011;8142;48.242;11.644;2023-07-13T13:41:16;2.30;;;1.60;;
16075;SDS011;8142;48.242;11.644;2023-07-13T13:43:43;2.40;;;1.73;;
16075;SDS011;8142;48.242;11.644;2023-07-13T13:46:17;3.67;;;1.70;;
16075;SDS011;8142;48.242;11.644;2023-07-13T13:48:46;3.00;;;1.63;;
16075;SDS011;8142;48.242;11.644;2023-07-13T13:51:13;3.73;;;1.50;;
16075;SDS011;8142;48.242;11.644;2023-07-13T13:53:41;1.87;;;1.60;;
16075;SDS011;8142;48.242;11.644;2023-07-13T13:56:08;4.40;;;1.60;;
16075;SDS011;8142;48.242;11.644;2023-07-13T13:58:34;3.03;;;1.60;;
16075;SDS011;8142;48.242;11.644;2023-07-13T14:00:59;3.07;;;1.70;;
16075;SDS011;8142;48.242;11.644;2023-07-13T14:03:26;2.77;;;1.50;;
16075;SDS011;8142;48.242;11.644;2023-07-13T14:05:53;2.50;;;1.73;;
16075;SDS011;8142;48.242;11.644;2023-07-13T14:08:22;3.30;;;1.67;;
16075;SDS011;8142;48.242;11.644;2023-07-13T14:10:51;2.20;;;1.50;;
16075;SDS011;8142;48.242;11.644;2023-07-13T14:13:29;1.70;;;1.50;;
16075;SDS011;8142;48.242;11.644;2023-07-13T14:16:01;1.73;;;1.50;;
16075;SDS011;8142;48.242;11.644;2023-07-13T14:18:27;1.73;;;1.60;;
16075;SDS011;8142;48.242;11.644;2023-07-13T14:20:53;4.27;;;1.63;;
16075;SDS011;8142;48.242;11.644;2023-07-13T14:23:19;2.77;;;1.50;;
16075;SDS011;8142;48.242;11.644;2023-07-13T14:25:45;2.30;;;1.63;;
16075;SDS011;8142;48.242;11.644;2023-07-13T14:28:16;2.20;;;1.60;;
16075;SDS011;8142;48.242;11.644;2023-07-13T14:30:50;3.50;;;1.53;;
16075;SDS011;8142;48.242;11.644;2023-07-13T14:33:17;3.40;;;1.50;;
16075;SDS011;8142;48.242;11.644;2023-07-13T14:35:43;3.73;;;1.90;;
16075;SDS011;8142;48.242;11.644;2023-07-13T14:38:13;2.40;;;1.50;;
16075;SDS011;8142;48.242;11.644;2023-07-13T14:40:42;1.57;;;1.40;;
16075;SDS011;8142;48.242;11.644;2023-07-13T14:43:14;3.67;;;1.60;;
16075;SDS011;8142;48.242;11.644;2023-07-13T14:45:42;2.33;;;1.60;;
16075;SDS011;8142;48.242;11.644;2023-07-13T14:48:19;2.07;;;1.60;;
16075;SDS011;8142;48.242;11.644;2023-07-13T14:50:49;2.43;;;1.60;;
16075;SDS011;8142;48.242;11.644;2023-07-13T14:53:20;2.63;;;1.77;;
16075;SDS011;8142;48.242;11.644;2023-07-13T14:55:45;3.37;;;1.70;;
16075;SDS011;8142;48.242;11.644;2023-07-13T14:58:11;1.73;;;1.50;;
16075;SDS011;8142;48.242;11.644;2023-07-13T15:00:38;3.23;;;1.50;;
16075;SDS011;8142;48.242;11.644;2023-07-13T15:03:05;3.47;;;1.70;;
16075;SDS011;8142;48.242;11.644;2023-07-13T15:05:50;2.43;;;1.60;;
16075;SDS011;8142;48.242;11.644;2023-07-13T15:08:16;3.43;;;1.90;;
16075;SDS011;8142;48.242;11.644;2023-07-13T15:10:42;2.47;;;1.60;;
16075;SDS011;8142;48.242;11.644;2023-07-13T15:15:43;3.90;;;1.80;;
16075;SDS011;8142;48.242;11.644;2023-07-13T15:18:14;4.50;;;1.70;;
16075;SDS011;8142;48.242;11.644;2023-07-13T15:20:42;2.27;;;1.50;;
16075;SDS011;8142;48.242;11.644;2023-07-13T15:23:12;2.80;;;1.77;;
16075;SDS011;8142;48.242;11.644;2023-07-13T15:25:40;3.10;;;1.80;;
16075;SDS011;8142;48.242;11.644;2023-07-13T15:28:07;2.50;;;1.50;;
16075;SDS011;8142;48.242;11.644;2023-07-13T15:30:35;4.77;;;1.80;;
16075;SDS011;8142;48.242;11.644;2023-07-13T15:33:14;2.90;;;1.90;;
16075;SDS011;8142;48.242;11.644;2023-07-13T15:35:52;2.33;;;1.60;;